Strona główna
METAR-TAF:

METAR-TAF

Lotnisko :

São Vicente, Republika Zielonego Przylądka

Port lotniczy São Pedro

Szerokość geograficzna: 16-49-59N, Długość geograficzna: 25-03-25W, wysokość: 20 m

Aktualna obserwacja pogody

Raport powstał 13 minut temu, godzina 19:00 UTC
Wiatr 20 kt od wschodnio-północny wschód w porywach dochodzący do 33 kt
Temperatura 21°C
Wilgotność 64%
Ciśnienie 1016 hPa
Widzialność 10 km lub więcej
Mało chmury na wysokości 1800 ft
Przerywane chmury na wysokości 10000 ft

METAR: GVSV 171900Z 06020G33KT 9999 FEW018 BKN100 21/14 Q1016 NOSIG

czas: 18:13 (19:13 UTC)

Prognoza

Raport powstał 2 godziny i 13 minut temu, godzina 17:00 UTC
Prognoza ważna od 17 godzina 18 UTC do 18 godzina 24 UTC
Wiatr 20 kt od wschodnio-północny wschód
Widzialność 10 km lub więcej
Przerywane chmury na wysokości 1700 ft
Przejściowo
od 18 godzina 11 UTC do 18 godzina 19 UTC
Wiatr 20 kt od wschodnio-północny wschód w porywach dochodzący do 30 kt

TAF: GVSV 171700Z 1718/1824 06020KT 9999 BKN017 TEMPO 1811/1819 06020G30KT

Obserwacja i prognoza pogody dla ponad 4000 lotnisk (raport METAR i TAF).

Dostępne stacje oznaczono żółtymi i czerwonymi punktami na mapie.

Najedź kursorem aby zobaczyć nazwę stacji.

Kliknij aby zobaczyć obserwacje i prognozy pogody.

Aby zmienić mapę: kliknij na zielony przycisk z czarnym krzyżykiem, aby powiększyć; na zielony przycisk z myślnikiem, aby pomniejszyć; na zielone strzałki, aby przejść do map sąsiednich.


METAR-TAF: